createdAt,value
2023-01-18T00:01:36.701Z,12.78
2023-01-18T00:04:07.269Z,12.55
2023-01-18T00:06:37.796Z,12.60
2023-01-18T00:09:08.412Z,12.69
2023-01-18T00:11:40.796Z,12.87
2023-01-18T00:14:12.452Z,13.14
2023-01-18T00:16:42.962Z,12.87
2023-01-18T00:19:14.260Z,12.94
2023-01-18T00:21:44.818Z,12.91
2023-01-18T00:24:16.466Z,12.92
2023-01-18T00:26:47.021Z,12.62
2023-01-18T00:29:17.934Z,13.10
2023-01-18T00:31:48.887Z,11.51
2023-01-18T00:34:19.591Z,12.20
2023-01-18T00:36:50.781Z,12.93
2023-01-18T00:39:21.334Z,12.73
2023-01-18T00:42:09.927Z,12.79
2023-01-18T00:44:41.516Z,12.59
2023-01-18T00:47:12.152Z,13.36
2023-01-18T00:49:42.676Z,13.18
2023-01-18T00:52:13.242Z,13.15
2023-01-18T00:54:43.806Z,13.19
2023-01-18T00:57:14.435Z,13.18
2023-01-18T00:59:46.801Z,13.33
2023-01-18T01:02:18.526Z,13.15
2023-01-18T01:05:07.250Z,13.30
2023-01-18T01:07:37.960Z,12.97
2023-01-18T01:10:09.222Z,12.75
2023-01-18T01:12:57.838Z,12.70
2023-01-18T01:15:46.220Z,12.64
2023-01-18T01:18:35.562Z,12.55
2023-01-18T01:21:24.117Z,12.62
2023-01-18T01:24:12.300Z,12.71
2023-01-18T01:26:43.034Z,12.82
2023-01-18T01:29:13.677Z,12.77
2023-01-18T01:31:44.808Z,12.57
2023-01-18T01:34:15.510Z,12.60
2023-01-18T01:36:46.105Z,12.53
2023-01-18T01:39:16.943Z,12.94
2023-01-18T01:41:49.207Z,12.91
2023-01-18T01:44:24.312Z,12.69
2023-01-18T01:46:57.832Z,12.56
2023-01-18T01:49:34.288Z,12.73
2023-01-18T01:52:11.022Z,12.71
2023-01-18T01:54:47.818Z,12.60
2023-01-18T01:57:21.231Z,12.52
2023-01-18T02:00:00.722Z,12.61
2023-01-18T02:02:33.507Z,12.40
2023-01-18T02:05:07.863Z,12.38
2023-01-18T02:07:38.707Z,12.53
2023-01-18T02:10:10.366Z,12.40
2023-01-18T02:12:43.483Z,12.28
2023-01-18T02:15:14.326Z,12.23
2023-01-18T02:17:50.574Z,12.38
2023-01-18T02:20:58.855Z,12.01
2023-01-18T02:23:40.885Z,11.99
2023-01-18T02:26:29.057Z,12.05
2023-01-18T02:31:59.978Z,11.96
2023-01-18T02:34:42.217Z,12.15
2023-01-18T02:37:19.496Z,12.10
2023-01-18T02:40:11.209Z,11.88
2023-01-18T02:43:02.288Z,12.30
2023-01-18T02:45:53.592Z,12.16
2023-01-18T02:48:25.856Z,12.22
2023-01-18T02:50:56.419Z,12.12
2023-01-18T02:53:27.026Z,12.16
2023-01-18T02:56:00.468Z,12.40
2023-01-18T02:58:36.804Z,12.51
2023-01-18T03:01:29.365Z,12.29
2023-01-18T03:04:05.618Z,12.44
2023-01-18T03:06:36.869Z,12.45
2023-01-18T03:09:07.483Z,11.96
2023-01-18T03:11:46.922Z,12.01
2023-01-18T03:14:36.617Z,12.59
2023-01-18T03:17:25.530Z,12.80
2023-01-18T03:20:07.993Z,12.75
2023-01-18T03:22:59.204Z,12.77
2023-01-18T03:25:44.048Z,12.95
2023-01-18T03:31:02.503Z,12.77
2023-01-18T03:33:48.179Z,12.76
2023-01-18T03:36:24.304Z,12.70
2023-01-18T03:39:13.393Z,13.06
2023-01-18T03:41:46.957Z,12.96
2023-01-18T03:44:29.588Z,12.57
2023-01-18T03:47:00.245Z,12.76
2023-01-18T03:49:31.802Z,13.12
2023-01-18T03:52:11.189Z,12.92
2023-01-18T03:54:47.499Z,12.57
2023-01-18T03:57:36.061Z,12.85
2023-01-18T04:00:08.477Z,13.27
2023-01-18T04:02:40.422Z,13.17
2023-01-18T04:05:12.664Z,13.21
2023-01-18T04:07:43.946Z,12.97
2023-01-18T04:10:14.483Z,13.13
2023-01-18T04:12:46.076Z,12.79
2023-01-18T04:15:17.049Z,12.91
2023-01-18T04:17:49.256Z,13.03
2023-01-18T04:20:19.912Z,13.19
2023-01-18T04:22:54.363Z,13.11
2023-01-18T04:25:24.977Z,13.31
2023-01-18T04:27:55.827Z,13.08
2023-01-18T04:30:27.520Z,13.02
2023-01-18T04:32:58.527Z,13.04
2023-01-18T04:35:29.215Z,13.28
2023-01-18T04:37:59.909Z,12.98
2023-01-18T04:40:30.533Z,12.60
2023-01-18T04:43:01.410Z,13.40
2023-01-18T04:45:32.348Z,13.31
2023-01-18T04:48:02.968Z,13.38
2023-01-18T04:50:33.619Z,13.08
2023-01-18T04:53:04.132Z,13.27
2023-01-18T04:55:34.687Z,12.96
2023-01-18T04:58:05.237Z,13.25
2023-01-18T05:00:35.797Z,13.27
2023-01-18T05:03:07.119Z,13.31
2023-01-18T05:05:37.690Z,13.09
2023-01-18T05:08:08.228Z,13.39
2023-01-18T05:10:38.760Z,13.40
2023-01-18T05:13:09.341Z,13.27
2023-01-18T05:15:40.180Z,13.24
2023-01-18T05:18:10.700Z,13.19
2023-01-18T05:20:41.246Z,13.05
2023-01-18T05:23:11.780Z,12.83
2023-01-18T05:25:42.429Z,13.04
2023-01-18T05:28:12.973Z,13.47
2023-01-18T05:30:44.984Z,13.59
2023-01-18T05:33:15.626Z,13.44
2023-01-18T05:35:50.287Z,13.57
2023-01-18T05:38:21.462Z,13.46
2023-01-18T05:40:54.272Z,13.51
2023-01-18T05:43:27.138Z,13.35
2023-01-18T05:45:58.365Z,13.17
2023-01-18T05:48:29.926Z,13.29
2023-01-18T05:51:00.468Z,13.49
2023-01-18T05:53:31.066Z,13.46
2023-01-18T05:56:03.367Z,13.72
2023-01-18T05:58:35.257Z,13.25
2023-01-18T06:01:07.868Z,13.30
2023-01-18T06:03:38.536Z,13.30
2023-01-18T06:06:09.064Z,13.50
2023-01-18T06:08:39.743Z,13.26
2023-01-18T06:11:11.386Z,13.47
2023-01-18T06:13:41.973Z,13.50
2023-01-18T06:16:12.556Z,13.38
2023-01-18T06:18:43.153Z,13.19
2023-01-18T06:21:13.701Z,13.19
2023-01-18T06:23:44.419Z,13.13
2023-01-18T06:26:14.981Z,13.04
2023-01-18T06:28:45.855Z,13.08
2023-01-18T06:31:16.517Z,13.07
2023-01-18T06:33:47.048Z,13.34
2023-01-18T06:36:17.592Z,14.28
2023-01-18T06:38:48.163Z,14.37
2023-01-18T06:41:18.710Z,14.35
2023-01-18T06:43:50.975Z,14.39
2023-01-18T06:46:21.915Z,14.41
2023-01-18T06:48:52.495Z,14.34
2023-01-18T06:51:23.166Z,13.98
2023-01-18T06:53:53.765Z,13.19
2023-01-18T06:56:26.943Z,13.69
2023-01-18T06:58:59.002Z,13.39
2023-01-18T07:01:29.974Z,13.45
2023-01-18T07:04:00.766Z,13.03
2023-01-18T07:06:32.315Z,13.20
2023-01-18T07:09:05.985Z,13.04
2023-01-18T07:11:37.322Z,13.38
2023-01-18T07:14:07.866Z,12.91
2023-01-18T07:16:38.434Z,12.77
2023-01-18T07:19:09.288Z,13.04
2023-01-18T07:21:40.123Z,12.86
2023-01-18T07:24:10.720Z,12.80
2023-01-18T07:26:41.270Z,13.15
2023-01-18T07:29:12.129Z,13.18
2023-01-18T07:31:43.791Z,13.66
2023-01-18T07:34:14.528Z,12.73
2023-01-18T07:36:45.464Z,13.18
2023-01-18T07:39:16.117Z,13.42
2023-01-18T07:41:46.673Z,13.06
2023-01-18T07:44:17.359Z,12.68
2023-01-18T07:46:47.912Z,13.38
2023-01-18T07:49:18.420Z,13.26
2023-01-18T07:51:48.988Z,12.98
2023-01-18T07:54:19.907Z,12.34
2023-01-18T07:56:50.467Z,13.50
2023-01-18T07:59:20.980Z,13.23
2023-01-18T08:01:51.645Z,12.91
2023-01-18T08:04:22.379Z,13.00
2023-01-18T08:06:52.947Z,13.45
2023-01-18T08:09:23.478Z,12.77
2023-01-18T08:11:54.049Z,13.12
2023-01-18T08:14:24.565Z,12.72
2023-01-18T08:16:55.157Z,12.96
2023-01-18T08:19:25.712Z,12.64
2023-01-18T08:21:56.273Z,12.80
2023-01-18T08:24:28.552Z,12.22
2023-01-18T08:26:59.180Z,12.24
2023-01-18T08:29:29.720Z,12.82
2023-01-18T08:32:00.908Z,12.68
2023-01-18T08:34:31.422Z,12.96
2023-01-18T08:37:02.030Z,12.61
2023-01-18T08:39:32.593Z,12.52
2023-01-18T08:42:03.169Z,12.76
2023-01-18T08:44:36.733Z,12.61
2023-01-18T08:47:08.890Z,12.85
2023-01-18T08:49:39.507Z,12.88
2023-01-18T08:52:11.078Z,12.37
2023-01-18T08:54:41.844Z,12.89
2023-01-18T08:57:12.427Z,13.07
2023-01-18T08:59:42.958Z,12.67
2023-01-18T09:02:13.894Z,13.19
2023-01-18T09:04:46.335Z,12.85
2023-01-18T09:07:17.514Z,12.98
2023-01-18T09:09:48.146Z,12.51
2023-01-18T09:12:19.028Z,12.77
2023-01-18T09:14:50.261Z,13.20
2023-01-18T09:17:21.431Z,12.41
2023-01-18T09:19:52.887Z,13.15
2023-01-18T09:22:24.389Z,13.42
2023-01-18T09:24:55.150Z,12.94
2023-01-18T09:27:25.753Z,12.92
2023-01-18T09:29:57.414Z,13.12
2023-01-18T09:32:29.595Z,13.23
2023-01-18T09:35:00.156Z,13.32
2023-01-18T09:37:31.687Z,13.11
2023-01-18T09:40:02.519Z,13.36
2023-01-18T09:42:35.980Z,13.17
2023-01-18T09:45:07.310Z,13.46
2023-01-18T09:47:43.539Z,13.52
2023-01-18T09:50:19.726Z,13.06
2023-01-18T09:52:56.014Z,13.15
2023-01-18T09:55:35.273Z,12.89
2023-01-18T09:58:43.856Z,13.48
2023-01-18T10:01:20.526Z,13.67
2023-01-18T10:03:54.789Z,13.39
2023-01-18T10:06:28.261Z,13.67
2023-01-18T10:09:08.484Z,13.54
2023-01-18T10:12:00.742Z,13.71
2023-01-18T10:14:40.115Z,13.65
2023-01-18T10:17:17.955Z,13.99
2023-01-18T10:19:48.716Z,13.12
2023-01-18T10:22:24.963Z,13.54
2023-01-18T10:25:25.618Z,13.77
2023-01-18T10:28:08.200Z,14.25
2023-01-18T10:30:44.644Z,14.32
2023-01-18T10:33:29.869Z,13.70
2023-01-18T10:36:05.935Z,13.88
2023-01-18T10:38:38.171Z,13.84
2023-01-18T10:41:11.681Z,13.71
2023-01-18T10:43:42.313Z,13.81
2023-01-18T10:46:15.988Z,13.25
2023-01-18T10:48:49.405Z,13.87
2023-01-18T10:51:36.123Z,14.00
2023-01-18T10:54:27.106Z,13.82
2023-01-18T10:57:09.132Z,13.59
2023-01-18T10:59:41.716Z,13.77
2023-01-18T11:02:21.323Z,13.82
2023-01-18T11:04:56.946Z,14.06
2023-01-18T11:07:29.752Z,14.06
2023-01-18T11:10:02.830Z,13.81
2023-01-18T11:12:48.806Z,13.48
2023-01-18T11:15:22.443Z,13.48
2023-01-18T11:17:58.717Z,13.52
2023-01-18T11:20:51.222Z,13.13
2023-01-18T11:23:25.663Z,14.31
2023-01-18T11:26:09.260Z,13.61
2023-01-18T11:28:47.314Z,12.69
2023-01-18T11:31:22.499Z,13.00
2023-01-18T11:33:59.434Z,12.87
2023-01-18T11:36:42.111Z,12.74
2023-01-18T11:39:33.461Z,12.63
2023-01-18T11:42:23.805Z,12.03
2023-01-18T11:45:16.586Z,12.69
2023-01-18T11:48:05.731Z,12.70
2023-01-18T11:51:00.425Z,12.95
2023-01-18T11:53:54.430Z,12.73
2023-01-18T11:56:30.564Z,12.84
2023-01-18T11:59:03.491Z,13.23
2023-01-18T12:01:36.979Z,13.25
2023-01-18T12:04:19.171Z,12.66
2023-01-18T12:07:02.725Z,12.97
2023-01-18T12:09:56.568Z,12.80
2023-01-18T12:12:52.402Z,12.84
2023-01-18T12:15:50.077Z,12.88
2023-01-18T12:18:43.957Z,12.53
2023-01-18T12:21:29.369Z,13.02
2023-01-18T12:24:19.133Z,12.31
2023-01-18T12:26:59.719Z,12.77
2023-01-18T12:29:33.222Z,12.50
2023-01-18T12:32:32.728Z,12.44
2023-01-18T12:35:46.894Z,12.09
2023-01-18T12:38:41.056Z,12.74
2023-01-18T12:41:45.289Z,12.83
2023-01-18T12:44:36.712Z,13.18
2023-01-18T12:47:35.373Z,13.16
2023-01-18T12:50:08.976Z,12.99
2023-01-18T12:52:42.505Z,12.20
2023-01-18T12:55:16.725Z,12.10
2023-01-18T12:57:47.517Z,12.84
2023-01-18T13:00:38.446Z,12.51
2023-01-18T13:03:15.808Z,12.79
2023-01-18T13:05:58.864Z,11.55
2023-01-18T13:08:35.311Z,12.54
2023-01-18T13:11:17.558Z,12.77
2023-01-18T13:13:50.630Z,12.94
2023-01-18T13:16:40.675Z,12.78
2023-01-18T13:19:17.221Z,12.66
2023-01-18T13:21:54.597Z,13.23
2023-01-18T13:24:56.921Z,13.11
2023-01-18T13:27:27.614Z,13.07
2023-01-18T13:30:01.145Z,13.39
2023-01-18T13:32:34.602Z,13.18
2023-01-18T13:35:25.958Z,13.46
2023-01-18T13:37:59.536Z,13.11
2023-01-18T13:40:41.653Z,13.31
2023-01-18T13:43:32.809Z,13.31
2023-01-18T13:46:10.089Z,13.38
2023-01-18T13:49:02.639Z,13.21
2023-01-18T13:51:43.919Z,13.32
2023-01-18T13:54:20.118Z,13.45
2023-01-18T13:57:09.837Z,13.25
2023-01-18T13:59:47.495Z,12.80
2023-01-18T14:02:34.214Z,13.46
2023-01-18T14:05:25.495Z,13.30
2023-01-18T14:07:58.229Z,12.76
2023-01-18T14:10:42.297Z,12.27
2023-01-18T14:13:17.909Z,12.43
2023-01-18T14:15:54.311Z,12.34
2023-01-18T14:18:31.262Z,12.77
2023-01-18T14:21:22.905Z,12.46
2023-01-18T14:24:16.889Z,11.96
2023-01-18T14:26:49.695Z,12.02
2023-01-18T14:29:23.205Z,11.95
2023-01-18T14:31:56.285Z,12.46
2023-01-18T14:34:32.297Z,12.43
2023-01-18T14:37:03.275Z,12.78
2023-01-18T14:39:33.842Z,12.59
2023-01-18T14:42:07.935Z,12.52
2023-01-18T14:44:57.732Z,12.50
2023-01-18T14:47:24.239Z,12.43
2023-01-18T14:50:10.716Z,12.32
2023-01-18T14:52:44.817Z,11.69
2023-01-18T14:55:27.120Z,11.40
2023-01-18T14:58:12.541Z,11.86
2023-01-18T15:00:49.088Z,12.03
2023-01-18T15:03:26.952Z,11.72
2023-01-18T15:08:56.026Z,11.66
2023-01-18T15:11:34.566Z,11.98
2023-01-18T15:14:16.144Z,11.62
2023-01-18T15:16:50.895Z,11.34
2023-01-18T15:19:29.108Z,12.03
2023-01-18T15:22:04.416Z,11.48
2023-01-18T15:24:41.995Z,11.85
2023-01-18T15:27:20.236Z,12.02
2023-01-18T15:29:57.242Z,12.14
2023-01-18T15:32:31.716Z,11.98
2023-01-18T15:35:14.658Z,12.40
2023-01-18T15:37:45.199Z,12.16
2023-01-18T15:40:21.582Z,11.81
2023-01-18T15:42:53.337Z,12.10
2023-01-18T15:45:29.815Z,12.72
2023-01-18T15:48:11.031Z,12.51
2023-01-18T15:50:53.428Z,12.49
2023-01-18T15:53:36.684Z,11.65
2023-01-18T15:56:13.089Z,12.40
2023-01-18T15:58:51.880Z,12.09
2023-01-18T16:01:27.128Z,11.96
2023-01-18T16:04:03.733Z,12.24
2023-01-18T16:06:41.774Z,11.77
2023-01-18T16:09:16.687Z,12.12
2023-01-18T16:11:54.913Z,12.36
2023-01-18T16:14:33.279Z,12.52
2023-01-18T16:17:18.695Z,12.49
2023-01-18T16:19:55.352Z,12.49
2023-01-18T16:22:29.891Z,12.38
2023-01-18T16:25:04.348Z,12.34
2023-01-18T16:27:52.503Z,13.21
2023-01-18T16:30:35.751Z,12.73
2023-01-18T16:33:13.742Z,12.94
2023-01-18T16:35:46.277Z,13.25
2023-01-18T16:38:25.046Z,12.51
2023-01-18T16:40:56.547Z,13.31
2023-01-18T16:43:33.184Z,13.08
2023-01-18T16:46:06.006Z,13.21
2023-01-18T16:48:39.651Z,13.34
2023-01-18T16:51:19.600Z,13.38
2023-01-18T16:53:50.908Z,12.96
2023-01-18T16:56:24.608Z,12.75
2023-01-18T16:58:59.649Z,12.99
2023-01-18T17:01:32.954Z,12.67
2023-01-18T17:04:07.145Z,13.37
2023-01-18T17:06:40.338Z,13.44
2023-01-18T17:09:28.113Z,13.52
2023-01-18T17:12:03.508Z,13.55
2023-01-18T17:14:37.752Z,14.10
2023-01-18T17:17:11.321Z,13.81
2023-01-18T17:19:44.911Z,13.84
2023-01-18T17:22:18.867Z,13.88
2023-01-18T17:24:52.150Z,13.57
2023-01-18T17:27:24.840Z,12.93
2023-01-18T17:29:59.240Z,13.29
2023-01-18T17:35:28.004Z,13.11
2023-01-18T17:38:11.364Z,13.53
2023-01-18T17:40:42.624Z,13.42
2023-01-18T17:43:33.459Z,13.78
2023-01-18T17:46:01.235Z,13.23
2023-01-18T17:48:30.361Z,13.38
2023-01-18T17:51:13.096Z,12.52
2023-01-18T17:53:47.975Z,13.65
2023-01-18T17:56:23.749Z,13.73
2023-01-18T17:58:57.339Z,11.90
2023-01-18T18:01:34.114Z,12.63
2023-01-18T18:04:07.460Z,12.64
2023-01-18T18:06:53.341Z,12.86
2023-01-18T18:09:15.967Z,12.56
2023-01-18T18:11:48.114Z,12.92
2023-01-18T18:14:28.077Z,12.47
2023-01-18T18:17:07.971Z,12.17
2023-01-18T18:19:43.987Z,12.63
2023-01-18T18:22:16.406Z,12.91
2023-01-18T18:24:50.164Z,12.90
2023-01-18T18:27:37.523Z,12.28
2023-01-18T18:30:03.497Z,12.57
2023-01-18T18:32:38.291Z,13.06
2023-01-18T18:35:26.732Z,11.91
2023-01-18T18:37:45.989Z,12.65
2023-01-18T18:40:18.457Z,12.40
2023-01-18T18:43:01.302Z,12.66
2023-01-18T18:45:25.260Z,12.19
2023-01-18T18:48:00.891Z,12.58
2023-01-18T18:50:36.236Z,11.63
2023-01-18T18:53:07.695Z,12.79
2023-01-18T18:55:41.324Z,12.58
2023-01-18T18:58:13.834Z,12.11
2023-01-18T19:00:48.237Z,12.50
2023-01-18T19:03:20.808Z,12.72
2023-01-18T19:05:56.249Z,12.47
2023-01-18T19:08:39.774Z,12.09
2023-01-18T19:11:13.607Z,11.84
2023-01-18T19:13:48.691Z,12.18
2023-01-18T19:16:21.947Z,12.40
2023-01-18T19:18:58.985Z,12.57
2023-01-18T19:21:32.549Z,12.35
2023-01-18T19:24:06.660Z,12.45
2023-01-18T19:26:38.641Z,12.16
2023-01-18T19:29:13.172Z,12.18
2023-01-18T19:31:44.773Z,12.50
2023-01-18T19:34:27.305Z,12.28
2023-01-18T19:36:59.561Z,12.25
2023-01-18T19:39:37.993Z,12.66
2023-01-18T19:42:09.803Z,12.55
2023-01-18T19:44:41.383Z,12.39
2023-01-18T19:47:13.047Z,12.62
2023-01-18T19:49:46.751Z,12.54
2023-01-18T19:52:19.697Z,12.38
2023-01-18T19:54:51.931Z,12.68
2023-01-18T19:57:23.676Z,12.40
2023-01-18T19:59:57.930Z,12.66
2023-01-18T20:02:35.189Z,12.71
2023-01-18T20:05:10.569Z,12.73
2023-01-18T20:07:44.198Z,13.07
2023-01-18T20:10:17.855Z,12.89
2023-01-18T20:12:53.625Z,13.08
2023-01-18T20:15:26.210Z,12.79
2023-01-18T20:17:57.800Z,12.57
2023-01-18T20:20:32.736Z,12.66
2023-01-18T20:23:04.469Z,12.46
2023-01-18T20:25:36.644Z,12.68
2023-01-18T20:28:10.876Z,12.89
2023-01-18T20:30:46.572Z,12.36
2023-01-18T20:33:18.311Z,12.78
2023-01-18T20:35:51.955Z,13.17
2023-01-18T20:38:24.098Z,13.12
2023-01-18T20:40:59.109Z,12.85
2023-01-18T20:43:32.191Z,12.99
2023-01-18T20:46:08.589Z,12.90
2023-01-18T20:48:41.151Z,13.18
2023-01-18T20:51:13.078Z,12.98
2023-01-18T20:53:45.170Z,13.06
2023-01-18T20:56:28.843Z,12.89
2023-01-18T20:58:51.583Z,13.02
2023-01-18T21:01:31.925Z,12.95
2023-01-18T21:04:05.317Z,13.13
2023-01-18T21:06:39.093Z,13.10
2023-01-18T21:09:12.543Z,13.23
2023-01-18T21:11:45.991Z,13.08
2023-01-18T21:14:17.903Z,13.13
2023-01-18T21:16:51.838Z,13.34
2023-01-18T21:19:30.234Z,13.09
2023-01-18T21:22:05.084Z,13.39
2023-01-18T21:24:39.624Z,13.39
2023-01-18T21:27:21.866Z,13.44
2023-01-18T21:29:57.856Z,13.47
2023-01-18T21:32:31.309Z,13.57
2023-01-18T21:35:10.560Z,13.32
2023-01-18T21:37:43.651Z,12.78
2023-01-18T21:40:17.175Z,11.87
2023-01-18T21:43:07.350Z,12.25
2023-01-18T21:45:57.080Z,12.94
2023-01-18T21:48:31.310Z,12.41
2023-01-18T21:51:23.710Z,12.78
2023-01-18T21:54:19.441Z,12.58
2023-01-18T21:56:54.008Z,12.51
2023-01-18T21:59:29.418Z,12.41
2023-01-18T22:02:02.096Z,12.57
2023-01-18T22:04:52.245Z,12.61
2023-01-18T22:07:25.982Z,12.79
2023-01-18T22:10:05.189Z,12.71
2023-01-18T22:12:36.553Z,13.12
2023-01-18T22:15:10.864Z,12.59
2023-01-18T22:17:45.840Z,12.91
2023-01-18T22:20:19.587Z,13.13
2023-01-18T22:22:51.713Z,12.53
2023-01-18T22:25:24.172Z,12.82
2023-01-18T22:27:56.891Z,12.21
2023-01-18T22:30:30.953Z,12.32
2023-01-18T22:33:02.625Z,12.66
2023-01-18T22:35:36.261Z,12.54
2023-01-18T22:38:11.358Z,13.12
2023-01-18T22:40:42.686Z,12.96
2023-01-18T22:43:19.317Z,12.54
2023-01-18T22:45:57.590Z,12.69
2023-01-18T22:48:30.608Z,13.07
2023-01-18T22:51:04.845Z,13.31
2023-01-18T22:53:37.161Z,13.34
2023-01-18T22:56:14.128Z,12.94
2023-01-18T22:58:46.844Z,12.82
2023-01-18T23:01:25.666Z,13.08
2023-01-18T23:04:05.785Z,12.98
2023-01-18T23:06:46.020Z,12.97
2023-01-18T23:09:22.051Z,13.02
2023-01-18T23:11:56.213Z,13.77
2023-01-18T23:14:50.015Z,13.84
2023-01-18T23:17:40.137Z,13.59
2023-01-18T23:20:24.916Z,13.13
2023-01-18T23:23:01.203Z,13.34
2023-01-18T23:25:34.422Z,13.28
2023-01-18T23:28:09.533Z,13.13
2023-01-18T23:31:02.113Z,13.31
2023-01-18T23:33:35.588Z,12.44
2023-01-18T23:36:10.408Z,11.70
2023-01-18T23:39:00.626Z,12.87
2023-01-18T23:41:49.137Z,12.54
2023-01-18T23:44:37.566Z,12.57
2023-01-18T23:47:25.713Z,12.93
2023-01-18T23:50:14.251Z,12.70
2023-01-18T23:53:02.727Z,12.74
2023-01-18T23:55:33.549Z,12.97
2023-01-18T23:58:04.362Z,13.19
